createdAt,value
2022-08-17T00:00:52.290Z,9.23
2022-08-17T00:03:02.786Z,7.43
2022-08-17T00:05:08.135Z,7.20
2022-08-17T00:07:13.120Z,7.20
2022-08-17T00:09:18.509Z,7.22
2022-08-17T00:11:33.370Z,7.35
2022-08-17T00:13:41.749Z,8.13
2022-08-17T00:16:00.061Z,8.68
2022-08-17T00:18:04.443Z,8.10
2022-08-17T00:20:33.437Z,8.73
2022-08-17T00:22:36.986Z,9.30
2022-08-17T00:24:44.825Z,8.00
2022-08-17T00:26:47.377Z,8.32
2022-08-17T00:28:51.700Z,8.43
2022-08-17T00:30:56.032Z,9.15
2022-08-17T00:33:14.351Z,8.30
2022-08-17T00:35:23.880Z,9.02
2022-08-17T00:37:28.784Z,8.13
2022-08-17T00:39:57.312Z,8.90
2022-08-17T00:41:59.241Z,8.18
2022-08-17T00:44:05.994Z,8.93
2022-08-17T00:46:26.857Z,8.93
2022-08-17T00:48:31.040Z,8.90
2022-08-17T00:50:33.300Z,8.82
2022-08-17T00:52:56.218Z,10.05
2022-08-17T00:55:24.718Z,9.40
2022-08-17T00:57:53.348Z,9.27
2022-08-17T01:00:16.264Z,8.57
2022-08-17T01:02:42.044Z,8.85
2022-08-17T01:05:02.299Z,8.55
2022-08-17T01:07:19.843Z,9.43
2022-08-17T01:09:29.857Z,9.30
2022-08-17T01:11:37.425Z,10.05
2022-08-17T01:14:09.153Z,8.52
2022-08-17T01:18:33.717Z,7.07
2022-08-17T01:21:03.410Z,7.70
2022-08-17T01:23:07.423Z,8.07
2022-08-17T01:25:16.229Z,8.45
2022-08-17T01:27:20.537Z,7.80
2022-08-17T01:29:49.326Z,8.05
2022-08-17T01:32:08.159Z,8.48
2022-08-17T01:34:16.473Z,9.23
2022-08-17T01:36:19.795Z,9.82
2022-08-17T01:38:27.200Z,8.15
2022-08-17T01:40:46.654Z,9.32
2022-08-17T01:42:59.567Z,9.50
2022-08-17T01:45:24.879Z,9.65
2022-08-17T01:47:37.607Z,8.90
2022-08-17T01:49:49.601Z,8.48
2022-08-17T01:51:57.697Z,8.40
2022-08-17T01:54:10.837Z,11.02
2022-08-17T01:56:16.328Z,7.15
2022-08-17T01:58:24.257Z,8.18
2022-08-17T02:00:59.539Z,8.50
2022-08-17T02:03:02.068Z,8.40
2022-08-17T02:05:09.988Z,8.60
2022-08-17T02:07:26.136Z,8.13
2022-08-17T02:09:34.246Z,9.15
2022-08-17T02:11:40.308Z,9.30
2022-08-17T02:14:05.381Z,8.60
2022-08-17T02:16:19.671Z,8.75
2022-08-17T02:18:45.193Z,8.57
2022-08-17T02:20:54.305Z,8.88
2022-08-17T02:23:00.691Z,8.93
2022-08-17T02:25:19.218Z,8.82
2022-08-17T02:27:21.073Z,8.88
2022-08-17T02:29:28.790Z,8.38
2022-08-17T02:31:31.316Z,8.90
2022-08-17T02:33:56.912Z,8.52
2022-08-17T02:36:27.416Z,8.55
2022-08-17T02:38:41.073Z,9.27
2022-08-17T02:40:47.783Z,8.57
2022-08-17T02:42:51.014Z,8.40
2022-08-17T02:45:15.784Z,8.90
2022-08-17T02:47:20.909Z,8.93
2022-08-17T02:49:24.811Z,9.15
2022-08-17T02:51:28.062Z,9.13
2022-08-17T02:54:39.131Z,8.07
2022-08-17T02:56:32.115Z,8.73
2022-08-17T02:58:58.914Z,8.40
2022-08-17T03:01:01.959Z,8.63
2022-08-17T03:03:06.284Z,8.52
2022-08-17T03:05:12.866Z,7.68
2022-08-17T03:07:16.877Z,8.80
2022-08-17T03:09:27.036Z,8.23
2022-08-17T03:11:30.899Z,8.38
2022-08-17T03:13:32.939Z,9.20
2022-08-17T03:15:35.846Z,8.38
2022-08-17T03:17:46.290Z,8.75
2022-08-17T03:19:51.266Z,9.35
2022-08-17T03:21:55.146Z,9.10
2022-08-17T03:23:57.913Z,9.48
2022-08-17T03:26:02.893Z,8.57
2022-08-17T03:28:06.471Z,8.63
2022-08-17T03:30:15.824Z,7.78
2022-08-17T03:32:17.974Z,7.97
2022-08-17T03:35:01.391Z,8.88
2022-08-17T03:37:46.912Z,9.15
2022-08-17T03:39:59.070Z,7.10
2022-08-17T03:42:31.870Z,7.57
2022-08-17T03:44:41.609Z,8.38
2022-08-17T03:47:01.923Z,7.88
2022-08-17T03:49:25.332Z,7.53
2022-08-17T03:51:56.119Z,8.35
2022-08-17T03:54:18.461Z,7.65
2022-08-17T03:56:40.056Z,7.80
2022-08-17T04:01:05.151Z,7.80
2022-08-17T04:03:08.199Z,8.05
2022-08-17T04:05:11.129Z,7.75
2022-08-17T04:07:14.078Z,6.85
2022-08-17T04:09:17.064Z,8.98
2022-08-17T04:11:22.403Z,9.38
2022-08-17T04:13:37.990Z,8.32
2022-08-17T04:15:59.446Z,8.68
2022-08-17T04:18:11.076Z,8.43
2022-08-17T04:20:29.420Z,8.57
2022-08-17T04:22:34.333Z,9.32
2022-08-17T04:24:39.542Z,9.05
2022-08-17T04:26:53.117Z,10.38
2022-08-17T04:28:58.729Z,9.88
2022-08-17T04:31:25.743Z,9.93
2022-08-17T04:33:30.115Z,10.23
2022-08-17T04:35:39.847Z,10.18
2022-08-17T04:37:42.767Z,9.93
2022-08-17T04:40:33.513Z,10.10
2022-08-17T04:42:41.568Z,9.98
2022-08-17T04:44:59.545Z,9.35
2022-08-17T04:47:04.785Z,9.85
2022-08-17T04:49:11.025Z,11.32
2022-08-17T04:51:26.535Z,10.13
2022-08-17T04:53:28.472Z,9.50
2022-08-17T04:55:30.566Z,9.27
2022-08-17T04:57:40.576Z,9.52
2022-08-17T04:59:54.174Z,9.15
2022-08-17T05:01:56.140Z,9.70
2022-08-17T05:04:02.387Z,8.88
2022-08-17T05:06:36.026Z,9.07
2022-08-17T05:08:37.978Z,8.32
2022-08-17T05:10:45.567Z,8.43
2022-08-17T05:12:47.842Z,9.70
2022-08-17T05:14:49.898Z,8.40
2022-08-17T05:16:53.821Z,9.52
2022-08-17T05:18:56.830Z,8.55
2022-08-17T05:21:00.950Z,8.00
2022-08-17T05:23:07.866Z,8.05
2022-08-17T05:25:09.990Z,8.20
2022-08-17T05:27:19.031Z,7.53
2022-08-17T05:29:21.276Z,8.43
2022-08-17T05:31:38.716Z,7.30
2022-08-17T05:33:56.985Z,8.23
2022-08-17T05:36:02.241Z,8.05
2022-08-17T05:38:09.201Z,7.28
2022-08-17T05:40:11.668Z,7.90
2022-08-17T05:42:19.250Z,8.85
2022-08-17T05:44:26.899Z,8.23
2022-08-17T05:46:41.963Z,7.25
2022-08-17T05:48:56.354Z,7.40
2022-08-17T05:51:59.612Z,7.63
2022-08-17T05:54:42.023Z,8.18
2022-08-17T05:56:52.270Z,8.02
2022-08-17T05:59:00.957Z,8.02
2022-08-17T06:01:17.259Z,7.00
2022-08-17T06:03:57.685Z,7.72
2022-08-17T06:09:03.476Z,6.88
2022-08-17T06:11:27.335Z,6.97
2022-08-17T06:13:55.830Z,7.05
2022-08-17T06:16:02.815Z,7.15
2022-08-17T06:18:19.012Z,7.22
2022-08-17T06:20:21.367Z,7.43
2022-08-17T06:22:52.830Z,7.40
2022-08-17T06:25:02.772Z,6.57
2022-08-17T06:27:12.419Z,6.95
2022-08-17T06:29:39.779Z,7.50
2022-08-17T06:31:42.524Z,6.35
2022-08-17T06:33:58.783Z,6.70
2022-08-17T06:36:35.554Z,6.40
2022-08-17T06:43:02.173Z,7.93
2022-08-17T06:44:51.729Z,6.32
2022-08-17T06:47:04.292Z,6.68
2022-08-17T06:49:22.222Z,6.68
2022-08-17T06:52:05.606Z,6.70
2022-08-17T06:54:46.136Z,6.75
2022-08-17T06:56:57.607Z,7.03
2022-08-17T06:59:03.175Z,6.80
2022-08-17T07:01:21.394Z,7.20
2022-08-17T07:03:54.646Z,6.45
2022-08-17T07:06:18.633Z,6.20
2022-08-17T07:08:38.208Z,6.30
2022-08-17T07:10:47.320Z,5.95
2022-08-17T07:13:03.489Z,7.10
2022-08-17T07:15:16.692Z,6.80
2022-08-17T07:17:21.895Z,6.50
2022-08-17T07:19:50.455Z,6.45
2022-08-17T07:22:18.258Z,6.82
2022-08-17T07:24:37.483Z,6.43
2022-08-17T07:26:40.444Z,6.35
2022-08-17T07:28:45.025Z,6.35
2022-08-17T07:30:51.614Z,6.72
2022-08-17T07:33:02.588Z,6.78
2022-08-17T07:35:37.559Z,7.35
2022-08-17T07:38:24.129Z,7.32
2022-08-17T07:40:35.516Z,6.63
2022-08-17T07:42:44.918Z,6.43
2022-08-17T07:44:54.394Z,7.63
2022-08-17T07:47:19.938Z,6.50
2022-08-17T07:49:24.170Z,7.18
2022-08-17T07:51:48.919Z,6.68
2022-08-17T07:53:51.836Z,6.32
2022-08-17T07:55:54.844Z,7.10
2022-08-17T07:58:00.301Z,6.60
2022-08-17T08:00:02.274Z,7.05
2022-08-17T08:02:17.274Z,7.57
2022-08-17T08:05:02.068Z,6.18
2022-08-17T08:07:08.789Z,6.40
2022-08-17T08:09:32.858Z,7.10
2022-08-17T08:11:44.354Z,6.18
2022-08-17T08:14:19.048Z,7.43
2022-08-17T08:17:00.220Z,6.35
2022-08-17T08:19:21.110Z,7.00
2022-08-17T08:21:37.244Z,6.63
2022-08-17T08:24:30.797Z,6.80
2022-08-17T08:27:12.620Z,6.55
2022-08-17T08:29:38.218Z,6.50
2022-08-17T08:32:11.087Z,6.97
2022-08-17T08:35:02.905Z,6.32
2022-08-17T08:37:42.975Z,6.25
2022-08-17T08:40:23.857Z,5.90
2022-08-17T08:43:12.879Z,5.70
2022-08-17T08:45:52.549Z,5.90
2022-08-17T08:48:46.063Z,6.25
2022-08-17T08:51:00.278Z,6.60
2022-08-17T08:53:43.019Z,6.55
2022-08-17T08:56:19.074Z,6.40
2022-08-17T08:58:59.625Z,6.13
2022-08-17T09:01:16.937Z,5.82
2022-08-17T09:03:53.124Z,6.63
2022-08-17T09:06:32.457Z,6.50
2022-08-17T09:11:11.056Z,6.40
2022-08-17T09:13:54.265Z,5.72
2022-08-17T09:16:36.330Z,6.20
2022-08-17T09:19:04.774Z,7.50
2022-08-17T09:21:52.819Z,5.90
2022-08-17T09:24:13.002Z,5.88
2022-08-17T09:26:44.383Z,6.32
2022-08-17T09:29:01.761Z,5.78
2022-08-17T09:31:24.293Z,6.53
2022-08-17T09:33:53.997Z,6.80
2022-08-17T09:36:04.189Z,6.28
2022-08-17T09:38:28.022Z,5.65
2022-08-17T09:40:43.538Z,5.35
2022-08-17T09:42:51.558Z,5.75
2022-08-17T09:45:08.823Z,6.15
2022-08-17T09:47:46.873Z,5.32
2022-08-17T09:49:56.683Z,5.85
2022-08-17T09:52:24.857Z,5.07
2022-08-17T09:54:40.016Z,4.97
2022-08-17T09:57:31.484Z,4.70
2022-08-17T09:59:53.956Z,5.53
2022-08-17T10:02:18.913Z,5.88
2022-08-17T10:04:58.324Z,5.03
2022-08-17T10:07:34.212Z,5.05
2022-08-17T10:09:50.284Z,4.93
2022-08-17T10:12:18.037Z,5.60
2022-08-17T10:15:07.903Z,4.78
2022-08-17T10:17:36.609Z,4.78
2022-08-17T10:19:55.341Z,5.28
2022-08-17T10:22:34.617Z,4.80
2022-08-17T10:25:22.732Z,4.55
2022-08-17T10:27:52.590Z,4.22
2022-08-17T10:30:21.880Z,5.40
2022-08-17T10:33:04.634Z,4.20
2022-08-17T10:35:43.841Z,4.72
2022-08-17T10:37:59.463Z,5.03
2022-08-17T10:40:31.305Z,4.18
2022-08-17T10:42:59.387Z,4.57
2022-08-17T10:45:15.790Z,5.13
2022-08-17T10:47:19.655Z,5.82
2022-08-17T10:49:29.579Z,4.80
2022-08-17T10:51:42.202Z,4.28
2022-08-17T10:53:58.467Z,5.00
2022-08-17T10:56:12.788Z,4.72
2022-08-17T10:58:22.209Z,4.97
2022-08-17T11:00:40.430Z,4.93
2022-08-17T11:03:02.208Z,4.45
2022-08-17T11:05:28.925Z,5.35
2022-08-17T11:08:09.021Z,4.78
2022-08-17T11:11:02.332Z,4.50
2022-08-17T11:16:59.181Z,5.18
2022-08-17T11:19:36.779Z,4.50
2022-08-17T11:22:17.937Z,4.78
2022-08-17T11:24:51.628Z,4.82
2022-08-17T11:27:33.733Z,4.57
2022-08-17T11:30:01.816Z,4.45
2022-08-17T11:32:28.494Z,4.50
2022-08-17T11:34:33.680Z,4.97
2022-08-17T11:36:45.733Z,5.07
2022-08-17T11:39:00.485Z,4.60
2022-08-17T11:41:45.337Z,4.55
2022-08-17T11:43:56.629Z,4.72
2022-08-17T11:49:15.512Z,4.80
2022-08-17T11:51:34.822Z,4.28
2022-08-17T11:53:37.925Z,3.90
2022-08-17T11:55:44.877Z,4.43
2022-08-17T11:58:28.259Z,5.57
2022-08-17T12:00:47.412Z,4.53
2022-08-17T12:03:12.368Z,4.80
2022-08-17T12:05:41.260Z,4.28
2022-08-17T12:08:05.769Z,4.78
2022-08-17T12:10:34.558Z,4.93
2022-08-17T12:12:44.282Z,4.53
2022-08-17T12:15:10.096Z,4.70
2022-08-17T12:17:40.658Z,4.30
2022-08-17T12:19:53.330Z,4.82
2022-08-17T12:22:16.754Z,4.32
2022-08-17T12:24:31.560Z,4.35
2022-08-17T12:26:44.353Z,4.10
2022-08-17T12:28:49.366Z,4.32
2022-08-17T12:30:53.271Z,4.60
2022-08-17T12:33:25.411Z,5.35
2022-08-17T12:35:35.539Z,5.03
2022-08-17T12:37:47.427Z,4.75
2022-08-17T12:40:42.232Z,5.00
2022-08-17T12:43:06.882Z,4.32
2022-08-17T12:46:13.347Z,5.30
2022-08-17T12:48:24.464Z,5.20
2022-08-17T12:50:30.243Z,5.72
2022-08-17T12:52:33.631Z,5.28
2022-08-17T12:54:40.474Z,4.88
2022-08-17T12:56:46.531Z,5.75
2022-08-17T12:59:02.485Z,5.72
2022-08-17T13:01:18.022Z,5.05
2022-08-17T13:03:26.715Z,5.78
2022-08-17T13:05:37.133Z,6.18
2022-08-17T13:07:44.835Z,5.25
2022-08-17T13:09:51.784Z,5.78
2022-08-17T13:11:58.812Z,5.00
2022-08-17T13:14:10.470Z,6.07
2022-08-17T13:16:15.318Z,4.53
2022-08-17T13:18:39.924Z,4.40
2022-08-17T13:20:59.590Z,4.28
2022-08-17T13:23:21.027Z,4.30
2022-08-17T13:27:36.000Z,4.72
2022-08-17T13:30:07.764Z,5.35
2022-08-17T13:32:20.382Z,5.18
2022-08-17T13:34:27.411Z,4.53
2022-08-17T13:36:36.992Z,5.15
2022-08-17T13:38:49.925Z,5.13
2022-08-17T13:40:59.023Z,4.53
2022-08-17T13:43:03.551Z,4.90
2022-08-17T13:45:35.389Z,5.40
2022-08-17T13:47:44.868Z,5.20
2022-08-17T13:49:55.651Z,5.35
2022-08-17T13:51:58.694Z,5.25
2022-08-17T13:54:07.368Z,5.20
2022-08-17T13:56:47.075Z,5.28
2022-08-17T13:59:15.441Z,4.85
2022-08-17T14:01:37.171Z,5.28
2022-08-17T14:03:39.155Z,4.88
2022-08-17T14:05:54.367Z,5.03
2022-08-17T14:08:06.872Z,5.00
2022-08-17T14:10:18.646Z,4.88
2022-08-17T14:12:25.291Z,5.40
2022-08-17T14:14:36.895Z,5.07
2022-08-17T14:16:41.921Z,4.93
2022-08-17T14:18:57.478Z,4.82
2022-08-17T14:21:10.401Z,4.60
2022-08-17T14:23:13.663Z,5.07
2022-08-17T14:25:28.775Z,4.78
2022-08-17T14:27:41.806Z,4.57
2022-08-17T14:29:55.940Z,4.63
2022-08-17T14:32:13.395Z,4.80
2022-08-17T14:34:24.180Z,5.22
2022-08-17T14:36:26.464Z,5.70
2022-08-17T14:38:30.493Z,5.05
2022-08-17T14:40:38.080Z,4.88
2022-08-17T14:42:43.107Z,4.90
2022-08-17T14:44:55.314Z,4.95
2022-08-17T14:47:16.165Z,5.72
2022-08-17T14:49:26.576Z,4.88
2022-08-17T14:51:30.157Z,5.00
2022-08-17T14:53:46.158Z,5.18
2022-08-17T14:55:51.421Z,5.00
2022-08-17T14:58:01.703Z,4.80
2022-08-17T15:00:05.098Z,4.60
2022-08-17T15:02:11.148Z,4.28
2022-08-17T15:04:23.232Z,4.95
2022-08-17T15:07:03.992Z,5.70
2022-08-17T15:09:10.556Z,4.43
2022-08-17T15:11:37.242Z,4.88
2022-08-17T15:13:53.620Z,4.70
2022-08-17T15:16:02.693Z,4.55
2022-08-17T15:18:08.710Z,4.82
2022-08-17T15:20:15.199Z,5.00
2022-08-17T15:22:27.399Z,5.50
2022-08-17T15:24:46.250Z,5.80
2022-08-17T15:26:53.327Z,5.32
2022-08-17T15:29:01.415Z,5.45
2022-08-17T15:31:07.001Z,4.82
2022-08-17T15:33:18.142Z,4.80
2022-08-17T15:35:30.117Z,5.25
2022-08-17T15:37:36.579Z,5.28
2022-08-17T15:39:56.432Z,4.75
2022-08-17T15:42:04.816Z,4.93
2022-08-17T15:44:08.762Z,5.22
2022-08-17T15:46:20.780Z,5.50
2022-08-17T15:48:42.441Z,4.85
2022-08-17T15:50:45.636Z,4.60
2022-08-17T15:53:05.140Z,4.72
2022-08-17T15:55:18.691Z,5.40
2022-08-17T15:57:41.891Z,5.68
2022-08-17T15:59:45.080Z,5.57
2022-08-17T16:03:15.225Z,5.38
2022-08-17T16:04:26.611Z,5.60
2022-08-17T16:06:36.257Z,6.35
2022-08-17T16:08:43.984Z,5.63
2022-08-17T16:10:48.724Z,5.70
2022-08-17T16:13:00.611Z,6.20
2022-08-17T16:15:09.304Z,6.53
2022-08-17T16:17:39.730Z,5.70
2022-08-17T16:20:07.403Z,6.20
2022-08-17T16:22:42.490Z,5.88
2022-08-17T16:25:02.219Z,5.53
2022-08-17T16:27:12.588Z,5.93
2022-08-17T16:29:25.188Z,5.47
2022-08-17T16:31:29.611Z,6.07
2022-08-17T16:34:15.563Z,5.97
2022-08-17T16:36:17.358Z,6.35
2022-08-17T16:38:19.574Z,6.88
2022-08-17T16:40:26.943Z,6.25
2022-08-17T16:42:39.875Z,6.30
2022-08-17T16:44:52.818Z,6.40
2022-08-17T16:46:58.682Z,6.43
2022-08-17T16:49:04.090Z,7.90
2022-08-17T16:51:27.697Z,10.63
2022-08-17T16:53:33.272Z,7.10
2022-08-17T16:55:40.041Z,6.35
2022-08-17T16:57:50.330Z,6.65
2022-08-17T17:00:17.566Z,6.90
2022-08-17T17:02:37.044Z,7.70
2022-08-17T17:05:01.360Z,7.45
2022-08-17T17:07:47.994Z,6.63
2022-08-17T17:09:57.382Z,6.65
2022-08-17T17:12:09.880Z,6.00
2022-08-17T17:14:29.790Z,6.85
2022-08-17T17:16:54.759Z,6.30
2022-08-17T17:19:36.661Z,5.90
2022-08-17T17:21:49.464Z,5.85
2022-08-17T17:24:17.007Z,5.32
2022-08-17T17:26:39.684Z,5.85
2022-08-17T17:29:06.641Z,6.70
2022-08-17T17:31:18.611Z,5.60
2022-08-17T17:34:05.148Z,5.57
2022-08-17T17:36:27.240Z,6.38
2022-08-17T17:38:48.216Z,6.97
2022-08-17T17:40:54.017Z,6.28
2022-08-17T17:43:39.663Z,6.50
2022-08-17T17:45:59.873Z,6.10
2022-08-17T17:48:41.588Z,6.32
2022-08-17T17:52:06.537Z,6.90
2022-08-17T17:54:34.275Z,6.13
2022-08-17T17:56:46.392Z,7.10
2022-08-17T17:58:53.916Z,6.97
2022-08-17T18:01:14.591Z,6.05
2022-08-17T18:04:03.501Z,6.05
2022-08-17T18:06:47.465Z,6.68
2022-08-17T18:09:03.015Z,7.13
2022-08-17T18:11:26.373Z,7.28
2022-08-17T18:14:15.015Z,6.78
2022-08-17T18:17:06.855Z,7.43
2022-08-17T18:21:44.611Z,7.50
2022-08-17T18:23:58.081Z,7.20
2022-08-17T18:26:06.916Z,7.72
2022-08-17T18:28:09.811Z,8.00
2022-08-17T18:30:30.081Z,7.25
2022-08-17T18:32:42.752Z,7.20
2022-08-17T18:34:56.004Z,7.50
2022-08-17T18:36:57.986Z,7.63
2022-08-17T18:39:18.359Z,7.43
2022-08-17T18:41:24.722Z,6.90
2022-08-17T18:43:52.659Z,8.38
2022-08-17T18:45:57.749Z,8.23
2022-08-17T18:48:25.629Z,6.78
2022-08-17T18:50:45.887Z,7.53
2022-08-17T18:52:48.992Z,8.00
2022-08-17T18:55:21.298Z,7.25
2022-08-17T18:57:33.046Z,7.22
2022-08-17T18:59:48.519Z,7.68
2022-08-17T19:02:24.934Z,7.47
2022-08-17T19:05:00.000Z,7.70
2022-08-17T19:07:12.862Z,7.88
2022-08-17T19:09:38.750Z,8.05
2022-08-17T19:11:58.393Z,7.82
2022-08-17T19:14:18.358Z,7.90
2022-08-17T19:16:49.311Z,8.52
2022-08-17T19:18:59.123Z,8.57
2022-08-17T19:21:38.925Z,8.13
2022-08-17T19:23:54.593Z,8.20
2022-08-17T19:26:01.950Z,8.57
2022-08-17T19:28:22.575Z,8.13
2022-08-17T19:30:26.305Z,8.63
2022-08-17T19:32:35.663Z,8.73
2022-08-17T19:34:52.605Z,9.20
2022-08-17T19:37:03.069Z,8.57
2022-08-17T19:39:55.797Z,8.70
2022-08-17T19:42:33.155Z,8.75
2022-08-17T19:45:09.250Z,9.27
2022-08-17T19:48:04.534Z,8.70
2022-08-17T19:50:23.780Z,9.38
2022-08-17T19:52:53.178Z,10.15
2022-08-17T19:55:20.767Z,11.07
2022-08-17T19:57:49.541Z,10.02
2022-08-17T20:00:13.186Z,9.45
2022-08-17T20:02:45.567Z,9.77
2022-08-17T20:04:51.211Z,10.20
2022-08-17T20:07:06.409Z,9.70
2022-08-17T20:09:44.808Z,10.05
2022-08-17T20:12:05.268Z,9.80
2022-08-17T20:14:53.417Z,9.45
2022-08-17T20:17:14.433Z,10.48
2022-08-17T20:19:48.164Z,9.85
2022-08-17T20:21:58.303Z,9.73
2022-08-17T20:24:06.093Z,9.45
2022-08-17T20:26:35.562Z,9.82
2022-08-17T20:29:40.359Z,9.40
2022-08-17T20:31:51.678Z,10.02
2022-08-17T20:33:53.926Z,10.13
2022-08-17T20:36:26.086Z,10.55
2022-08-17T20:38:44.892Z,10.23
2022-08-17T20:40:56.830Z,9.52
2022-08-17T20:43:19.558Z,10.18
2022-08-17T20:45:23.624Z,10.50
2022-08-17T20:47:27.595Z,9.40
2022-08-17T20:50:00.399Z,10.95
2022-08-17T20:52:16.864Z,10.65
2022-08-17T20:54:40.633Z,9.15
2022-08-17T20:56:47.535Z,9.60
2022-08-17T20:58:49.589Z,9.93
2022-08-17T21:00:56.583Z,10.38
2022-08-17T21:03:39.959Z,10.02
2022-08-17T21:06:03.227Z,10.07
2022-08-17T21:13:57.731Z,9.60
2022-08-17T21:16:27.614Z,9.75
2022-08-17T21:18:39.103Z,10.23
2022-08-17T21:23:08.511Z,10.07
2022-08-17T21:25:19.374Z,10.55
2022-08-17T21:27:26.706Z,9.95
2022-08-17T21:29:33.922Z,9.60
2022-08-17T21:32:03.493Z,11.75
2022-08-17T21:34:17.635Z,17.70
2022-08-17T21:36:26.438Z,17.48
2022-08-17T21:38:48.099Z,16.02
2022-08-17T21:40:53.115Z,12.50
2022-08-17T21:42:58.500Z,11.80
2022-08-17T21:45:37.041Z,11.57
2022-08-17T21:47:45.400Z,11.10
2022-08-17T21:49:48.027Z,11.80
2022-08-17T21:51:54.913Z,11.45
2022-08-17T21:54:00.716Z,11.07
2022-08-17T21:56:03.127Z,11.35
2022-08-17T21:58:29.300Z,10.75
2022-08-17T22:00:33.279Z,10.20
2022-08-17T22:02:42.003Z,11.32
2022-08-17T22:05:00.203Z,9.80
2022-08-17T22:07:06.892Z,10.10
2022-08-17T22:09:17.058Z,10.88
2022-08-17T22:11:19.970Z,10.55
2022-08-17T22:13:24.427Z,9.65
2022-08-17T22:15:31.618Z,10.60
2022-08-17T22:17:38.482Z,10.13
2022-08-17T22:19:44.311Z,10.63
2022-08-17T22:21:47.265Z,10.07
2022-08-17T22:24:16.171Z,10.43
2022-08-17T22:26:20.353Z,10.95
2022-08-17T22:28:43.060Z,11.38
2022-08-17T22:31:14.440Z,10.85
2022-08-17T22:35:43.460Z,11.63
2022-08-17T22:37:46.043Z,10.85
2022-08-17T22:39:57.814Z,11.50
2022-08-17T22:42:01.066Z,11.18
2022-08-17T22:44:23.347Z,11.05
2022-08-17T22:46:26.349Z,11.75
2022-08-17T22:48:31.365Z,11.23
2022-08-17T22:50:35.368Z,11.07
2022-08-17T22:52:57.138Z,11.30
2022-08-17T22:55:24.794Z,10.98
2022-08-17T22:57:45.683Z,10.85
2022-08-17T22:59:52.482Z,11.80
2022-08-17T23:02:18.138Z,11.52
2022-08-17T23:04:36.080Z,10.93
2022-08-17T23:06:42.440Z,11.60
2022-08-17T23:08:54.725Z,11.10
2022-08-17T23:10:57.098Z,11.52
2022-08-17T23:13:00.609Z,11.35
2022-08-17T23:15:03.850Z,12.10
2022-08-17T23:17:06.704Z,11.68
2022-08-17T23:19:10.585Z,12.18
2022-08-17T23:21:13.499Z,11.82
2022-08-17T23:23:23.969Z,11.88
2022-08-17T23:25:29.267Z,12.48
2022-08-17T23:27:31.863Z,12.40
2022-08-17T23:29:35.157Z,12.98
2022-08-17T23:31:38.874Z,12.60
2022-08-17T23:33:42.697Z,12.25
2022-08-17T23:35:44.769Z,12.55
2022-08-17T23:37:46.668Z,12.60
2022-08-17T23:39:48.572Z,12.60
2022-08-17T23:41:53.676Z,12.05
2022-08-17T23:46:17.726Z,12.73
2022-08-17T23:48:32.454Z,12.40
2022-08-17T23:50:39.086Z,12.07
2022-08-17T23:52:43.663Z,13.00
2022-08-17T23:54:47.644Z,11.95
2022-08-17T23:56:50.657Z,12.07
2022-08-17T23:58:55.315Z,11.63
